sensor_id;sensor_type;location;lat;lon;timestamp;P1;durP1;ratioP1;P2;durP2;ratioP2
39266;SDS011;24967;51.154;13.812;2022-07-29T00:02:25;6.55;;;1.30;;
39266;SDS011;24967;51.154;13.812;2022-07-29T00:04:52;7.45;;;1.40;;
39266;SDS011;24967;51.154;13.812;2022-07-29T00:07:19;3.30;;;1.35;;
39266;SDS011;24967;51.154;13.812;2022-07-29T00:09:46;5.38;;;1.58;;
39266;SDS011;24967;51.154;13.812;2022-07-29T00:12:14;3.45;;;1.42;;
39266;SDS011;24967;51.154;13.812;2022-07-29T00:14:41;3.80;;;1.30;;
39266;SDS011;24967;51.154;13.812;2022-07-29T00:17:08;3.70;;;1.30;;
39266;SDS011;24967;51.154;13.812;2022-07-29T00:19:34;3.60;;;1.42;;
39266;SDS011;24967;51.154;13.812;2022-07-29T00:22:01;4.90;;;1.63;;
39266;SDS011;24967;51.154;13.812;2022-07-29T00:24:28;5.57;;;1.40;;
39266;SDS011;24967;51.154;13.812;2022-07-29T00:26:54;3.17;;;1.30;;
39266;SDS011;24967;51.154;13.812;2022-07-29T00:29:22;5.45;;;1.60;;
39266;SDS011;24967;51.154;13.812;2022-07-29T00:31:49;3.03;;;1.40;;
39266;SDS011;24967;51.154;13.812;2022-07-29T00:34:16;6.43;;;1.20;;
39266;SDS011;24967;51.154;13.812;2022-07-29T00:37:12;3.50;;;1.10;;
39266;SDS011;24967;51.154;13.812;2022-07-29T00:39:39;1.30;;;1.30;;
39266;SDS011;24967;51.154;13.812;2022-07-29T00:42:06;1.25;;;1.15;;
39266;SDS011;24967;51.154;13.812;2022-07-29T00:44:37;3.00;;;1.50;;
39266;SDS011;24967;51.154;13.812;2022-07-29T00:49:31;2.78;;;1.20;;
39266;SDS011;24967;51.154;13.812;2022-07-29T00:51:57;3.55;;;1.20;;
39266;SDS011;24967;51.154;13.812;2022-07-29T00:54:26;2.25;;;1.45;;
39266;SDS011;24967;51.154;13.812;2022-07-29T00:56:54;2.55;;;1.77;;
39266;SDS011;24967;51.154;13.812;2022-07-29T00:59:22;2.35;;;1.30;;
39266;SDS011;24967;51.154;13.812;2022-07-29T01:01:50;2.42;;;1.50;;
39266;SDS011;24967;51.154;13.812;2022-07-29T01:04:17;2.38;;;1.23;;
39266;SDS011;24967;51.154;13.812;2022-07-29T01:06:44;3.05;;;1.70;;
39266;SDS011;24967;51.154;13.812;2022-07-29T01:09:10;1.63;;;1.52;;
39266;SDS011;24967;51.154;13.812;2022-07-29T01:11:39;2.28;;;1.35;;
39266;SDS011;24967;51.154;13.812;2022-07-29T01:14:06;5.97;;;1.50;;
39266;SDS011;24967;51.154;13.812;2022-07-29T01:16:35;2.53;;;1.10;;
39266;SDS011;24967;51.154;13.812;2022-07-29T01:19:13;1.92;;;1.20;;
39266;SDS011;24967;51.154;13.812;2022-07-29T01:21:55;3.00;;;1.52;;
39266;SDS011;24967;51.154;13.812;2022-07-29T01:24:30;4.05;;;1.58;;
39266;SDS011;24967;51.154;13.812;2022-07-29T01:27:09;2.13;;;1.40;;
39266;SDS011;24967;51.154;13.812;2022-07-29T01:29:49;2.45;;;1.30;;
39266;SDS011;24967;51.154;13.812;2022-07-29T01:32:22;2.20;;;1.15;;
39266;SDS011;24967;51.154;13.812;2022-07-29T01:34:53;1.40;;;1.30;;
39266;SDS011;24967;51.154;13.812;2022-07-29T01:37:24;4.10;;;1.50;;
39266;SDS011;24967;51.154;13.812;2022-07-29T01:39:55;3.38;;;1.30;;
39266;SDS011;24967;51.154;13.812;2022-07-29T01:42:29;2.47;;;1.20;;
39266;SDS011;24967;51.154;13.812;2022-07-29T01:45:02;2.15;;;1.23;;
39266;SDS011;24967;51.154;13.812;2022-07-29T01:47:37;2.22;;;1.38;;
39266;SDS011;24967;51.154;13.812;2022-07-29T01:50:09;1.45;;;1.20;;
39266;SDS011;24967;51.154;13.812;2022-07-29T01:52:46;1.40;;;1.30;;
39266;SDS011;24967;51.154;13.812;2022-07-29T01:55:17;1.60;;;1.50;;
39266;SDS011;24967;51.154;13.812;2022-07-29T01:57:48;2.72;;;1.45;;
39266;SDS011;24967;51.154;13.812;2022-07-29T02:00:17;4.03;;;1.60;;
39266;SDS011;24967;51.154;13.812;2022-07-29T02:02:45;3.25;;;1.90;;
39266;SDS011;24967;51.154;13.812;2022-07-29T02:05:15;1.77;;;1.65;;
39266;SDS011;24967;51.154;13.812;2022-07-29T02:07:44;1.75;;;1.20;;
39266;SDS011;24967;51.154;13.812;2022-07-29T02:10:13;2.13;;;1.40;;
39266;SDS011;24967;51.154;13.812;2022-07-29T02:12:43;2.28;;;1.42;;
39266;SDS011;24967;51.154;13.812;2022-07-29T02:15:12;2.08;;;1.45;;
39266;SDS011;24967;51.154;13.812;2022-07-29T02:17:45;5.38;;;1.55;;
39266;SDS011;24967;51.154;13.812;2022-07-29T02:20:15;2.65;;;1.20;;
39266;SDS011;24967;51.154;13.812;2022-07-29T02:22:42;2.25;;;1.40;;
39266;SDS011;24967;51.154;13.812;2022-07-29T02:25:11;1.40;;;1.27;;
39266;SDS011;24967;51.154;13.812;2022-07-29T02:27:39;1.60;;;1.50;;
39266;SDS011;24967;51.154;13.812;2022-07-29T02:30:08;2.15;;;1.40;;
39266;SDS011;24967;51.154;13.812;2022-07-29T02:32:37;1.58;;;1.40;;
39266;SDS011;24967;51.154;13.812;2022-07-29T02:35:09;3.22;;;1.30;;
39266;SDS011;24967;51.154;13.812;2022-07-29T02:37:38;3.50;;;1.50;;
39266;SDS011;24967;51.154;13.812;2022-07-29T02:40:08;4.70;;;1.45;;
39266;SDS011;24967;51.154;13.812;2022-07-29T02:42:37;3.42;;;1.35;;
39266;SDS011;24967;51.154;13.812;2022-07-29T02:45:06;2.25;;;1.35;;
39266;SDS011;24967;51.154;13.812;2022-07-29T02:47:34;4.53;;;1.48;;
39266;SDS011;24967;51.154;13.812;2022-07-29T02:50:07;3.05;;;1.35;;
39266;SDS011;24967;51.154;13.812;2022-07-29T02:52:39;1.98;;;1.70;;
39266;SDS011;24967;51.154;13.812;2022-07-29T02:55:11;1.98;;;1.42;;
39266;SDS011;24967;51.154;13.812;2022-07-29T02:57:44;2.13;;;1.45;;
39266;SDS011;24967;51.154;13.812;2022-07-29T03:00:14;1.67;;;1.40;;
39266;SDS011;24967;51.154;13.812;2022-07-29T03:02:43;3.15;;;1.30;;
39266;SDS011;24967;51.154;13.812;2022-07-29T03:05:18;3.25;;;1.60;;
39266;SDS011;24967;51.154;13.812;2022-07-29T03:07:48;6.25;;;1.60;;
39266;SDS011;24967;51.154;13.812;2022-07-29T03:10:19;1.90;;;1.80;;
39266;SDS011;24967;51.154;13.812;2022-07-29T03:12:47;1.42;;;1.40;;
39266;SDS011;24967;51.154;13.812;2022-07-29T03:15:14;1.67;;;1.58;;
39266;SDS011;24967;51.154;13.812;2022-07-29T03:17:41;3.15;;;1.35;;
39266;SDS011;24967;51.154;13.812;2022-07-29T03:20:09;2.15;;;1.55;;
39266;SDS011;24967;51.154;13.812;2022-07-29T03:22:40;1.60;;;1.50;;
39266;SDS011;24967;51.154;13.812;2022-07-29T03:25:09;2.17;;;1.25;;
39266;SDS011;24967;51.154;13.812;2022-07-29T03:27:36;2.53;;;1.40;;
39266;SDS011;24967;51.154;13.812;2022-07-29T03:30:03;2.05;;;1.48;;
39266;SDS011;24967;51.154;13.812;2022-07-29T03:32:30;3.15;;;1.65;;
39266;SDS011;24967;51.154;13.812;2022-07-29T03:34:57;1.70;;;1.60;;
39266;SDS011;24967;51.154;13.812;2022-07-29T03:37:23;2.45;;;1.58;;
39266;SDS011;24967;51.154;13.812;2022-07-29T03:39:52;3.97;;;1.58;;
39266;SDS011;24967;51.154;13.812;2022-07-29T03:42:21;3.38;;;1.40;;
39266;SDS011;24967;51.154;13.812;2022-07-29T03:44:50;5.00;;;1.73;;
39266;SDS011;24967;51.154;13.812;2022-07-29T03:47:20;1.50;;;1.40;;
39266;SDS011;24967;51.154;13.812;2022-07-29T03:49:50;2.70;;;1.55;;
39266;SDS011;24967;51.154;13.812;2022-07-29T03:52:20;5.68;;;1.77;;
39266;SDS011;24967;51.154;13.812;2022-07-29T03:54:47;2.63;;;1.75;;
39266;SDS011;24967;51.154;13.812;2022-07-29T03:57:16;4.80;;;1.67;;
39266;SDS011;24967;51.154;13.812;2022-07-29T03:59:46;3.80;;;1.65;;
39266;SDS011;24967;51.154;13.812;2022-07-29T04:02:13;2.17;;;1.65;;
39266;SDS011;24967;51.154;13.812;2022-07-29T04:04:40;1.98;;;1.55;;
39266;SDS011;24967;51.154;13.812;2022-07-29T04:07:07;1.55;;;1.30;;
39266;SDS011;24967;51.154;13.812;2022-07-29T04:09:37;2.95;;;1.70;;
39266;SDS011;24967;51.154;13.812;2022-07-29T04:12:04;1.38;;;1.38;;
39266;SDS011;24967;51.154;13.812;2022-07-29T04:14:33;2.88;;;1.92;;
39266;SDS011;24967;51.154;13.812;2022-07-29T04:17:01;2.70;;;1.38;;
39266;SDS011;24967;51.154;13.812;2022-07-29T04:19:28;3.55;;;1.58;;
39266;SDS011;24967;51.154;13.812;2022-07-29T04:21:55;3.30;;;1.58;;
39266;SDS011;24967;51.154;13.812;2022-07-29T04:24:21;2.72;;;1.50;;
39266;SDS011;24967;51.154;13.812;2022-07-29T04:26:48;4.80;;;1.95;;
39266;SDS011;24967;51.154;13.812;2022-07-29T04:29:15;2.50;;;1.55;;
39266;SDS011;24967;51.154;13.812;2022-07-29T04:31:43;1.45;;;1.40;;
39266;SDS011;24967;51.154;13.812;2022-07-29T04:34:10;4.72;;;1.50;;
39266;SDS011;24967;51.154;13.812;2022-07-29T04:36:37;2.88;;;1.65;;
39266;SDS011;24967;51.154;13.812;2022-07-29T04:39:04;2.50;;;1.38;;
39266;SDS011;24967;51.154;13.812;2022-07-29T04:41:31;2.90;;;2.08;;
39266;SDS011;24967;51.154;13.812;2022-07-29T04:43:57;2.20;;;1.77;;
39266;SDS011;24967;51.154;13.812;2022-07-29T04:46:25;5.72;;;1.98;;
39266;SDS011;24967;51.154;13.812;2022-07-29T04:48:54;3.38;;;1.80;;
39266;SDS011;24967;51.154;13.812;2022-07-29T04:51:20;4.20;;;1.80;;
39266;SDS011;24967;51.154;13.812;2022-07-29T04:53:47;3.97;;;1.63;;
39266;SDS011;24967;51.154;13.812;2022-07-29T04:56:14;4.40;;;1.67;;
39266;SDS011;24967;51.154;13.812;2022-07-29T04:58:40;4.25;;;1.73;;
39266;SDS011;24967;51.154;13.812;2022-07-29T05:01:07;2.40;;;1.40;;
39266;SDS011;24967;51.154;13.812;2022-07-29T05:03:34;3.20;;;1.52;;
39266;SDS011;24967;51.154;13.812;2022-07-29T05:06:02;2.50;;;1.60;;
39266;SDS011;24967;51.154;13.812;2022-07-29T05:08:29;4.43;;;2.08;;
39266;SDS011;24967;51.154;13.812;2022-07-29T05:10:55;10.07;;;2.00;;
39266;SDS011;24967;51.154;13.812;2022-07-29T05:13:22;3.60;;;1.77;;
39266;SDS011;24967;51.154;13.812;2022-07-29T05:15:49;10.05;;;1.85;;
39266;SDS011;24967;51.154;13.812;2022-07-29T05:18:15;8.45;;;1.63;;
39266;SDS011;24967;51.154;13.812;2022-07-29T05:20:42;3.08;;;1.67;;
39266;SDS011;24967;51.154;13.812;2022-07-29T05:23:10;3.75;;;1.55;;
39266;SDS011;24967;51.154;13.812;2022-07-29T05:25:37;3.17;;;1.63;;
39266;SDS011;24967;51.154;13.812;2022-07-29T05:28:04;3.85;;;1.67;;
39266;SDS011;24967;51.154;13.812;2022-07-29T05:30:31;4.35;;;1.70;;
39266;SDS011;24967;51.154;13.812;2022-07-29T05:32:58;3.15;;;1.65;;
39266;SDS011;24967;51.154;13.812;2022-07-29T05:35:24;2.47;;;1.45;;
39266;SDS011;24967;51.154;13.812;2022-07-29T05:37:51;2.03;;;1.60;;
39266;SDS011;24967;51.154;13.812;2022-07-29T05:40:19;8.20;;;1.70;;
39266;SDS011;24967;51.154;13.812;2022-07-29T05:42:46;11.35;;;1.88;;
39266;SDS011;24967;51.154;13.812;2022-07-29T05:45:13;9.10;;;1.92;;
39266;SDS011;24967;51.154;13.812;2022-07-29T05:47:40;4.30;;;1.55;;
39266;SDS011;24967;51.154;13.812;2022-07-29T05:50:07;6.43;;;1.70;;
39266;SDS011;24967;51.154;13.812;2022-07-29T05:52:35;10.57;;;1.85;;
39266;SDS011;24967;51.154;13.812;2022-07-29T05:55:02;4.90;;;1.63;;
39266;SDS011;24967;51.154;13.812;2022-07-29T05:57:32;5.65;;;1.77;;
39266;SDS011;24967;51.154;13.812;2022-07-29T05:59:58;1.50;;;1.40;;
39266;SDS011;24967;51.154;13.812;2022-07-29T06:02:25;5.00;;;2.22;;
39266;SDS011;24967;51.154;13.812;2022-07-29T06:04:52;3.85;;;1.80;;
39266;SDS011;24967;51.154;13.812;2022-07-29T06:07:19;2.92;;;1.70;;
39266;SDS011;24967;51.154;13.812;2022-07-29T06:09:46;6.63;;;1.60;;
39266;SDS011;24967;51.154;13.812;2022-07-29T06:12:12;3.35;;;1.65;;
39266;SDS011;24967;51.154;13.812;2022-07-29T06:14:41;3.63;;;1.60;;
39266;SDS011;24967;51.154;13.812;2022-07-29T06:17:07;2.15;;;1.42;;
39266;SDS011;24967;51.154;13.812;2022-07-29T06:19:36;3.42;;;1.70;;
39266;SDS011;24967;51.154;13.812;2022-07-29T06:22:05;4.03;;;1.80;;
39266;SDS011;24967;51.154;13.812;2022-07-29T06:24:32;3.35;;;1.70;;
39266;SDS011;24967;51.154;13.812;2022-07-29T06:27:05;4.30;;;1.80;;
39266;SDS011;24967;51.154;13.812;2022-07-29T06:30:07;4.90;;;1.92;;
39266;SDS011;24967;51.154;13.812;2022-07-29T06:36:27;2.47;;;1.60;;
39266;SDS011;24967;51.154;13.812;2022-07-29T06:39:00;3.75;;;1.38;;
39266;SDS011;24967;51.154;13.812;2022-07-29T06:42:12;7.47;;;1.90;;
39266;SDS011;24967;51.154;13.812;2022-07-29T06:45:34;3.20;;;1.80;;
39266;SDS011;24967;51.154;13.812;2022-07-29T06:48:11;5.78;;;1.60;;
39266;SDS011;24967;51.154;13.812;2022-07-29T06:51:05;6.75;;;2.10;;
39266;SDS011;24967;51.154;13.812;2022-07-29T06:54:06;5.82;;;1.60;;
39266;SDS011;24967;51.154;13.812;2022-07-29T07:00:45;2.80;;;1.55;;
39266;SDS011;24967;51.154;13.812;2022-07-29T07:03:21;3.08;;;1.55;;
39266;SDS011;24967;51.154;13.812;2022-07-29T07:05:49;8.50;;;1.60;;
39266;SDS011;24967;51.154;13.812;2022-07-29T07:08:30;6.38;;;1.58;;
39266;SDS011;24967;51.154;13.812;2022-07-29T07:11:20;3.03;;;1.98;;
39266;SDS011;24967;51.154;13.812;2022-07-29T07:14:11;3.47;;;1.40;;
39266;SDS011;24967;51.154;13.812;2022-07-29T07:16:43;3.22;;;1.50;;
39266;SDS011;24967;51.154;13.812;2022-07-29T07:19:26;5.00;;;1.40;;
39266;SDS011;24967;51.154;13.812;2022-07-29T07:21:55;3.40;;;1.80;;
39266;SDS011;24967;51.154;13.812;2022-07-29T07:24:52;4.03;;;1.70;;
39266;SDS011;24967;51.154;13.812;2022-07-29T07:27:27;3.85;;;1.83;;
39266;SDS011;24967;51.154;13.812;2022-07-29T07:29:55;11.32;;;2.10;;
39266;SDS011;24967;51.154;13.812;2022-07-29T07:32:29;5.45;;;1.70;;
39266;SDS011;24967;51.154;13.812;2022-07-29T07:35:25;6.00;;;2.03;;
39266;SDS011;24967;51.154;13.812;2022-07-29T07:38:17;5.22;;;1.58;;
39266;SDS011;24967;51.154;13.812;2022-07-29T07:40:45;9.45;;;1.60;;
39266;SDS011;24967;51.154;13.812;2022-07-29T07:43:12;7.30;;;1.67;;
39266;SDS011;24967;51.154;13.812;2022-07-29T07:45:39;4.85;;;1.50;;
39266;SDS011;24967;51.154;13.812;2022-07-29T07:48:07;6.63;;;1.70;;
39266;SDS011;24967;51.154;13.812;2022-07-29T07:50:35;2.35;;;1.50;;
39266;SDS011;24967;51.154;13.812;2022-07-29T07:53:01;1.98;;;1.70;;
39266;SDS011;24967;51.154;13.812;2022-07-29T07:55:28;4.20;;;1.70;;
39266;SDS011;24967;51.154;13.812;2022-07-29T07:57:54;3.65;;;1.70;;
39266;SDS011;24967;51.154;13.812;2022-07-29T08:00:21;1.80;;;1.58;;
39266;SDS011;24967;51.154;13.812;2022-07-29T08:02:49;2.50;;;1.65;;
39266;SDS011;24967;51.154;13.812;2022-07-29T08:05:21;4.55;;;1.80;;
39266;SDS011;24967;51.154;13.812;2022-07-29T08:07:47;6.50;;;2.25;;
39266;SDS011;24967;51.154;13.812;2022-07-29T08:10:14;5.60;;;2.47;;
39266;SDS011;24967;51.154;13.812;2022-07-29T08:13:11;6.93;;;2.75;;
39266;SDS011;24967;51.154;13.812;2022-07-29T08:16:09;5.00;;;2.38;;
39266;SDS011;24967;51.154;13.812;2022-07-29T08:18:40;8.25;;;4.15;;
39266;SDS011;24967;51.154;13.812;2022-07-29T08:21:14;7.15;;;3.80;;
39266;SDS011;24967;51.154;13.812;2022-07-29T08:23:42;12.10;;;6.18;;
39266;SDS011;24967;51.154;13.812;2022-07-29T08:26:14;9.90;;;5.70;;
39266;SDS011;24967;51.154;13.812;2022-07-29T08:28:42;7.90;;;5.57;;
39266;SDS011;24967;51.154;13.812;2022-07-29T08:31:30;14.52;;;7.10;;
39266;SDS011;24967;51.154;13.812;2022-07-29T08:34:14;11.00;;;6.45;;
39266;SDS011;24967;51.154;13.812;2022-07-29T08:36:48;13.77;;;7.75;;
39266;SDS011;24967;51.154;13.812;2022-07-29T08:39:28;15.43;;;8.70;;
39266;SDS011;24967;51.154;13.812;2022-07-29T08:44:47;14.93;;;8.80;;
39266;SDS011;24967;51.154;13.812;2022-07-29T08:47:32;17.15;;;8.68;;
39266;SDS011;24967;51.154;13.812;2022-07-29T08:50:07;14.47;;;9.47;;
39266;SDS011;24967;51.154;13.812;2022-07-29T08:53:02;17.70;;;9.50;;
39266;SDS011;24967;51.154;13.812;2022-07-29T08:55:41;14.30;;;7.65;;
39266;SDS011;24967;51.154;13.812;2022-07-29T08:58:18;13.02;;;7.72;;
39266;SDS011;24967;51.154;13.812;2022-07-29T09:00:51;10.93;;;6.38;;
39266;SDS011;24967;51.154;13.812;2022-07-29T09:07:10;10.55;;;5.55;;
39266;SDS011;24967;51.154;13.812;2022-07-29T09:12:46;6.82;;;4.00;;
39266;SDS011;24967;51.154;13.812;2022-07-29T09:15:17;4.53;;;3.05;;
39266;SDS011;24967;51.154;13.812;2022-07-29T09:17:44;4.70;;;2.92;;
39266;SDS011;24967;51.154;13.812;2022-07-29T09:20:13;3.08;;;2.78;;
39266;SDS011;24967;51.154;13.812;2022-07-29T09:22:40;6.47;;;4.63;;
39266;SDS011;24967;51.154;13.812;2022-07-29T09:25:15;7.82;;;3.67;;
39266;SDS011;24967;51.154;13.812;2022-07-29T09:28:15;6.28;;;3.22;;
39266;SDS011;24967;51.154;13.812;2022-07-29T09:30:49;3.63;;;2.63;;
39266;SDS011;24967;51.154;13.812;2022-07-29T09:33:21;3.72;;;2.65;;
39266;SDS011;24967;51.154;13.812;2022-07-29T09:35:59;3.35;;;2.35;;
39266;SDS011;24967;51.154;13.812;2022-07-29T09:38:37;4.60;;;2.63;;
39266;SDS011;24967;51.154;13.812;2022-07-29T09:50:45;8.85;;;5.78;;
39266;SDS011;24967;51.154;13.812;2022-07-29T09:53:30;7.47;;;5.50;;
39266;SDS011;24967;51.154;13.812;2022-07-29T09:56:02;5.90;;;3.42;;
39266;SDS011;24967;51.154;13.812;2022-07-29T09:58:41;9.70;;;5.88;;
39266;SDS011;24967;51.154;13.812;2022-07-29T10:01:08;9.20;;;6.38;;
39266;SDS011;24967;51.154;13.812;2022-07-29T10:16:52;2.63;;;2.40;;
39266;SDS011;24967;51.154;13.812;2022-07-29T10:19:26;3.47;;;2.47;;
39266;SDS011;24967;51.154;13.812;2022-07-29T10:21:59;4.15;;;2.70;;
39266;SDS011;24967;51.154;13.812;2022-07-29T10:24:37;7.88;;;4.40;;
39266;SDS011;24967;51.154;13.812;2022-07-29T10:27:05;5.85;;;4.40;;
39266;SDS011;24967;51.154;13.812;2022-07-29T10:29:34;7.50;;;3.80;;
39266;SDS011;24967;51.154;13.812;2022-07-29T10:32:16;6.65;;;4.47;;
39266;SDS011;24967;51.154;13.812;2022-07-29T10:52:16;11.60;;;7.15;;
39266;SDS011;24967;51.154;13.812;2022-07-29T10:54:45;13.18;;;6.97;;
39266;SDS011;24967;51.154;13.812;2022-07-29T10:57:25;11.10;;;7.00;;
39266;SDS011;24967;51.154;13.812;2022-07-29T11:02:55;13.63;;;7.60;;
39266;SDS011;24967;51.154;13.812;2022-07-29T11:05:23;11.40;;;7.30;;
39266;SDS011;24967;51.154;13.812;2022-07-29T11:14:05;14.32;;;7.30;;
39266;SDS011;24967;51.154;13.812;2022-07-29T11:19:33;7.05;;;4.90;;
39266;SDS011;24967;51.154;13.812;2022-07-29T11:22:09;4.20;;;3.80;;
39266;SDS011;24967;51.154;13.812;2022-07-29T11:27:42;6.97;;;3.80;;
39266;SDS011;24967;51.154;13.812;2022-07-29T11:30:10;4.40;;;3.60;;
39266;SDS011;24967;51.154;13.812;2022-07-29T11:32:38;2.80;;;2.33;;
39266;SDS011;24967;51.154;13.812;2022-07-29T11:35:13;6.63;;;2.53;;
39266;SDS011;24967;51.154;13.812;2022-07-29T11:37:42;2.70;;;2.45;;
39266;SDS011;24967;51.154;13.812;2022-07-29T11:40:16;4.50;;;2.42;;
39266;SDS011;24967;51.154;13.812;2022-07-29T11:42:47;4.45;;;2.10;;
39266;SDS011;24967;51.154;13.812;2022-07-29T11:45:15;7.20;;;3.72;;
39266;SDS011;24967;51.154;13.812;2022-07-29T11:48:00;6.70;;;3.30;;
39266;SDS011;24967;51.154;13.812;2022-07-29T11:50:29;6.35;;;3.80;;
39266;SDS011;24967;51.154;13.812;2022-07-29T11:52:58;8.85;;;4.63;;
39266;SDS011;24967;51.154;13.812;2022-07-29T11:55:27;10.73;;;5.05;;
39266;SDS011;24967;51.154;13.812;2022-07-29T11:57:56;5.47;;;3.50;;
39266;SDS011;24967;51.154;13.812;2022-07-29T12:00:28;6.55;;;3.95;;
39266;SDS011;24967;51.154;13.812;2022-07-29T12:02:56;3.83;;;3.42;;
39266;SDS011;24967;51.154;13.812;2022-07-29T12:05:33;4.82;;;3.10;;
39266;SDS011;24967;51.154;13.812;2022-07-29T12:08:12;4.18;;;2.67;;
39266;SDS011;24967;51.154;13.812;2022-07-29T12:10:45;6.63;;;3.83;;
39266;SDS011;24967;51.154;13.812;2022-07-29T12:13:13;4.13;;;3.58;;
39266;SDS011;24967;51.154;13.812;2022-07-29T12:15:40;3.92;;;3.50;;
39266;SDS011;24967;51.154;13.812;2022-07-29T12:18:09;4.35;;;3.40;;
39266;SDS011;24967;51.154;13.812;2022-07-29T12:20:37;6.15;;;3.20;;
39266;SDS011;24967;51.154;13.812;2022-07-29T12:23:06;5.15;;;2.97;;
39266;SDS011;24967;51.154;13.812;2022-07-29T12:25:34;4.63;;;3.75;;
39266;SDS011;24967;51.154;13.812;2022-07-29T12:28:09;7.28;;;3.92;;
39266;SDS011;24967;51.154;13.812;2022-07-29T12:30:39;8.15;;;4.47;;
39266;SDS011;24967;51.154;13.812;2022-07-29T12:33:15;6.40;;;4.32;;
39266;SDS011;24967;51.154;13.812;2022-07-29T12:35:44;8.75;;;4.15;;
39266;SDS011;24967;51.154;13.812;2022-07-29T12:38:12;4.15;;;3.80;;
39266;SDS011;24967;51.154;13.812;2022-07-29T12:40:39;5.65;;;3.95;;
39266;SDS011;24967;51.154;13.812;2022-07-29T12:43:10;7.90;;;4.35;;
39266;SDS011;24967;51.154;13.812;2022-07-29T12:45:39;5.60;;;4.18;;
39266;SDS011;24967;51.154;13.812;2022-07-29T12:48:09;6.80;;;4.93;;
39266;SDS011;24967;51.154;13.812;2022-07-29T12:53:30;7.20;;;4.90;;
39266;SDS011;24967;51.154;13.812;2022-07-29T12:56:02;8.02;;;5.00;;
39266;SDS011;24967;51.154;13.812;2022-07-29T12:58:32;5.00;;;4.50;;
39266;SDS011;24967;51.154;13.812;2022-07-29T13:01:01;6.20;;;5.18;;
39266;SDS011;24967;51.154;13.812;2022-07-29T13:03:44;10.13;;;5.50;;
39266;SDS011;24967;51.154;13.812;2022-07-29T13:06:28;7.55;;;5.88;;
39266;SDS011;24967;51.154;13.812;2022-07-29T13:09:06;6.85;;;5.75;;
39266;SDS011;24967;51.154;13.812;2022-07-29T13:11:34;9.10;;;6.25;;
39266;SDS011;24967;51.154;13.812;2022-07-29T13:14:03;8.55;;;6.55;;
39266;SDS011;24967;51.154;13.812;2022-07-29T13:16:30;10.88;;;7.35;;
39266;SDS011;24967;51.154;13.812;2022-07-29T13:19:04;11.27;;;8.27;;
39266;SDS011;24967;51.154;13.812;2022-07-29T13:21:32;10.98;;;7.47;;
39266;SDS011;24967;51.154;13.812;2022-07-29T13:24:03;11.55;;;7.57;;
39266;SDS011;24967;51.154;13.812;2022-07-29T13:26:31;11.55;;;8.10;;
39266;SDS011;24967;51.154;13.812;2022-07-29T13:28:58;8.75;;;7.32;;
39266;SDS011;24967;51.154;13.812;2022-07-29T13:31:28;10.55;;;6.70;;
39266;SDS011;24967;51.154;13.812;2022-07-29T13:33:54;11.85;;;7.55;;
39266;SDS011;24967;51.154;13.812;2022-07-29T13:36:22;7.40;;;6.68;;
39266;SDS011;24967;51.154;13.812;2022-07-29T13:38:48;9.85;;;6.53;;
39266;SDS011;24967;51.154;13.812;2022-07-29T13:41:15;9.05;;;6.82;;
39266;SDS011;24967;51.154;13.812;2022-07-29T13:43:41;7.18;;;6.43;;
39266;SDS011;24967;51.154;13.812;2022-07-29T13:46:08;9.77;;;6.32;;
39266;SDS011;24967;51.154;13.812;2022-07-29T13:48:35;7.85;;;6.40;;
39266;SDS011;24967;51.154;13.812;2022-07-29T13:51:02;9.13;;;6.65;;
39266;SDS011;24967;51.154;13.812;2022-07-29T13:53:28;10.98;;;6.35;;
39266;SDS011;24967;51.154;13.812;2022-07-29T13:55:55;8.10;;;6.65;;
39266;SDS011;24967;51.154;13.812;2022-07-29T13:58:22;9.13;;;6.07;;
39266;SDS011;24967;51.154;13.812;2022-07-29T14:00:49;7.55;;;5.22;;
39266;SDS011;24967;51.154;13.812;2022-07-29T14:03:15;8.45;;;5.43;;
39266;SDS011;24967;51.154;13.812;2022-07-29T14:05:43;8.63;;;4.80;;
39266;SDS011;24967;51.154;13.812;2022-07-29T14:08:10;7.05;;;5.05;;
39266;SDS011;24967;51.154;13.812;2022-07-29T14:10:36;6.25;;;5.47;;
39266;SDS011;24967;51.154;13.812;2022-07-29T14:13:03;6.30;;;5.70;;
39266;SDS011;24967;51.154;13.812;2022-07-29T14:15:29;6.65;;;4.95;;
39266;SDS011;24967;51.154;13.812;2022-07-29T14:17:56;5.10;;;4.53;;
39266;SDS011;24967;51.154;13.812;2022-07-29T14:20:23;6.57;;;4.05;;
39266;SDS011;24967;51.154;13.812;2022-07-29T14:22:51;5.10;;;3.90;;
39266;SDS011;24967;51.154;13.812;2022-07-29T14:25:17;3.88;;;3.45;;
39266;SDS011;24967;51.154;13.812;2022-07-29T14:27:43;3.78;;;2.72;;
39266;SDS011;24967;51.154;13.812;2022-07-29T14:30:10;6.13;;;3.60;;
39266;SDS011;24967;51.154;13.812;2022-07-29T14:32:37;6.32;;;4.32;;
39266;SDS011;24967;51.154;13.812;2022-07-29T14:35:04;6.53;;;5.40;;
39266;SDS011;24967;51.154;13.812;2022-07-29T14:37:31;8.13;;;6.13;;
39266;SDS011;24967;51.154;13.812;2022-07-29T14:40:06;8.15;;;5.45;;
39266;SDS011;24967;51.154;13.812;2022-07-29T14:42:34;7.63;;;6.35;;
39266;SDS011;24967;51.154;13.812;2022-07-29T14:45:10;9.13;;;7.20;;
39266;SDS011;24967;51.154;13.812;2022-07-29T14:47:37;10.73;;;6.43;;
39266;SDS011;24967;51.154;13.812;2022-07-29T14:50:08;5.68;;;4.07;;
39266;SDS011;24967;51.154;13.812;2022-07-29T14:52:35;4.85;;;3.35;;
39266;SDS011;24967;51.154;13.812;2022-07-29T14:55:04;5.68;;;3.70;;
39266;SDS011;24967;51.154;13.812;2022-07-29T14:57:31;3.33;;;3.00;;
39266;SDS011;24967;51.154;13.812;2022-07-29T14:59:58;3.78;;;2.53;;
39266;SDS011;24967;51.154;13.812;2022-07-29T15:02:24;3.47;;;3.17;;
39266;SDS011;24967;51.154;13.812;2022-07-29T15:04:50;5.20;;;3.10;;
39266;SDS011;24967;51.154;13.812;2022-07-29T15:07:17;3.30;;;3.03;;
39266;SDS011;24967;51.154;13.812;2022-07-29T15:09:43;3.65;;;2.90;;
39266;SDS011;24967;51.154;13.812;2022-07-29T15:12:12;3.38;;;3.08;;
39266;SDS011;24967;51.154;13.812;2022-07-29T15:14:38;3.88;;;2.85;;
39266;SDS011;24967;51.154;13.812;2022-07-29T15:17:05;3.25;;;2.30;;
39266;SDS011;24967;51.154;13.812;2022-07-29T15:19:31;2.95;;;2.70;;
39266;SDS011;24967;51.154;13.812;2022-07-29T15:21:58;5.40;;;2.50;;
39266;SDS011;24967;51.154;13.812;2022-07-29T15:24:24;2.63;;;2.40;;
39266;SDS011;24967;51.154;13.812;2022-07-29T15:26:51;5.72;;;2.78;;
39266;SDS011;24967;51.154;13.812;2022-07-29T15:29:18;3.30;;;3.10;;
39266;SDS011;24967;51.154;13.812;2022-07-29T15:31:45;2.85;;;2.65;;
39266;SDS011;24967;51.154;13.812;2022-07-29T15:34:11;3.53;;;2.97;;
39266;SDS011;24967;51.154;13.812;2022-07-29T15:36:38;4.50;;;3.35;;
39266;SDS011;24967;51.154;13.812;2022-07-29T15:39:05;3.33;;;2.85;;
39266;SDS011;24967;51.154;13.812;2022-07-29T15:41:32;3.13;;;2.80;;
39266;SDS011;24967;51.154;13.812;2022-07-29T15:43:59;2.83;;;2.58;;
39266;SDS011;24967;51.154;13.812;2022-07-29T15:46:27;3.17;;;2.53;;
39266;SDS011;24967;51.154;13.812;2022-07-29T15:49:11;2.90;;;2.30;;
39266;SDS011;24967;51.154;13.812;2022-07-29T15:51:37;4.30;;;2.80;;
39266;SDS011;24967;51.154;13.812;2022-07-29T15:54:04;6.05;;;2.53;;
39266;SDS011;24967;51.154;13.812;2022-07-29T15:56:31;3.35;;;2.63;;
39266;SDS011;24967;51.154;13.812;2022-07-29T15:58:57;3.90;;;2.78;;
39266;SDS011;24967;51.154;13.812;2022-07-29T16:01:24;2.67;;;2.47;;
39266;SDS011;24967;51.154;13.812;2022-07-29T16:03:52;3.92;;;2.72;;
39266;SDS011;24967;51.154;13.812;2022-07-29T16:06:20;3.92;;;2.42;;
39266;SDS011;24967;51.154;13.812;2022-07-29T16:08:46;3.50;;;2.50;;
39266;SDS011;24967;51.154;13.812;2022-07-29T16:11:13;3.50;;;2.80;;
39266;SDS011;24967;51.154;13.812;2022-07-29T16:13:39;6.13;;;2.67;;